Weerspreuk van de week. Houden de kraaien voor Allerheiligen al school, zorg dan voor hout en kool.
Het weer levert geen direct gevaar op.    Er zijn geen waarschuwingen afgegeven.

Onweer radar Meer informatie blitzortung!


Regen radar Meer informatie rain snow radar


Bekijk deze sites ook eens:

FPL Automotive (TIP)

Autostekkers.nl (TIP)

Over Luyksgestel

De Kempen, mijn omgeving

BOL.com

Weerstation Noordbergum

Inktweb

Weerstation Hapert

Weerstation Hoogeloon

Weerstation Son&Breugel

Weerstation Castaert

Smartphonehoesjes

Weerstation Tilburg Reeshof

Weerstation Scheulder

Weerverwachting Samos

Samos actueel

Weerwoord (forum)

Griekenlandforum

Vakantie naar Samos

Zomerzon

Canon

Wolven in Nederland



METAR rapporten vliegvelden

   
EBAW - Antwerp
Gewijzigd: 15-11-2019 07:50
Grotendeels bewolkt  
Grotendeels bewolkt  
   Wind: NO 14.8 km/h
Wind: NO 14.8 km/h
Temperatuur: 3°C
Voelt als: -1°C
Dauwpunt: 1°C
Vochtigheid: 87%
Barometer: 999 hPa
Bewolking: Grotendeels bewolkt
Zicht: 7 km
Bewolking: Grotendeels bewolkt 800 ft
EBAW 150650Z 05008KT 7000 BKN008 03/01 Q0999 NOSIG
EBLG - Liège
Gewijzigd: 15-11-2019 07:50
Gedeeltelijk bewolkt  
Gedeeltelijk bewolkt  
   Wind: NO 14.8 km/h
Wind: NO 14.8 km/h
Temperatuur: 2°C
Voelt als: -2°C
Dauwpunt: 0°C
Vochtigheid: 87%
Barometer: 997 hPa
Bewolking: Gedeeltelijk bewolkt
Zicht: 9 km
Bewolking: Gedeeltelijk bewolkt
EBLG 150650Z 04008KT 9000 NSC 02/00 Q0997 NOSIG
EBCV - Mons/Bergen
Gewijzigd: 15-11-2019 07:55
Bewolking  
Bewolking  
   Wind: NO 13 km/h
Wind: NO 13 km/h
Temperatuur: 3°C
Voelt als: -1°C
Dauwpunt: 2°C
Vochtigheid: 93%
Barometer: 998 hPa
Bewolking: Bewolking
Zicht: 5 km
Bewolking: Bewolking 700 ft
EBCV 150655Z AUTO 05007KT 5000 OVC007/// 03/02 Q0998 GRN
EHBK - Maastricht
Gewijzigd: 15-11-2019 07:55
Nevel, Gedeeltelijk bewolkt  
Nevel, Gedeeltelijk bewolkt  
   Wind: NNO 13 km/h
Wind: NNO 13 km/h
Temperatuur: 2°C
Voelt als: -2°C
Dauwpunt: 1°C
Vochtigheid: 93%
Barometer: 998 hPa
Bewolking: Gedeeltelijk bewolkt
Zicht: 5 km
Bewolking: Gedeeltelijk bewolkt
EHBK 150655Z AUTO 03007KT 360V070 5000 BR NSC 02/01 Q0998 NOSIG
ELLX - Luxemburg
Gewijzigd: 15-11-2019 07:50
Helder  
Helder  
   Wind: Oosten 7.4 km/h
Wind: Oosten 7.4 km/h
Temperatuur: 2°C
Voelt als: 0°C
Dauwpunt: 0°C
Vochtigheid: 87%
Barometer: 996 hPa
Zicht: meer dan 10 km
Bewolking: Helder
ELLX 150650Z 10004KT 020V170 CAVOK 02/00 Q0996 NOSIG
EBOS - Oostende
Gewijzigd: 15-11-2019 07:50
Licht bewolkt  
Licht bewolkt  
   Wind: NO 22.2 km/h
Wind: NO 22.2 km/h
Temperatuur: 5°C
Voelt als: 1°C
Dauwpunt: 3°C
Vochtigheid: 87%
Barometer: 1000 hPa
Bewolking: Licht bewolkt
Zicht: meer dan 10 km
Bewolking: Licht bewolkt 1300 ft
EBOS 150650Z 05012KT 9999 FEW013 05/03 Q1000 BECMG BKN008

Script ontwikkeld door  Saratoga-weather.org Aangepast voor de template door  Weerstation Leuven

U vindt ons ook hier:

Het Weer Aktueel

UK Metoffice

European Weather Network

Weather Underground

AWEKAS